Time;durP1;ratioP1;P1;durP2;ratioP2;P2;SDS_P1;SDS_P2;PMS_P1;PMS_P2;Temp;Humidity;BMP_temperature;BMP_pressure;BME280_temperature;BME280_humidity;BME280_pressure;Samples;Min_cycle;Max_cycle;Signal;HPM_P1;HPM_P2
2023/02/18 00:00:37;;;;;;;6.18;1.33;;;;;;;;;;5033019;28;20377;-67
2023/02/18 00:03:02;;;;;;;5.30;1.42;;;;;;;;;;5030457;28;20025;-66
2023/02/18 00:05:28;;;;;;;5.78;1.30;;;;;;;;;;5033174;28;20108;-67
2023/02/18 00:07:53;;;;;;;4.43;1.30;;;;;;;;;;5028424;28;20033;-68
2023/02/18 00:10:18;;;;;;;7.03;1.50;;;;;;;;;;5033282;28;20024;-66
2023/02/18 00:12:44;;;;;;;4.22;1.35;;;;;;;;;;5031663;28;20480;-67
2023/02/18 00:15:12;;;;;;;4.95;1.42;;;;;;;;;;5032400;28;20100;-66
2023/02/18 00:17:37;;;;;;;5.03;1.80;;;;;;;;;;5031153;28;20029;-66
2023/02/18 00:20:03;;;;;;;5.83;1.40;;;;;;;;;;5030224;28;20409;-66
2023/02/18 00:22:28;;;;;;;4.50;1.42;;;;;;;;;;5029638;28;20014;-65
2023/02/18 00:24:53;;;;;;;4.67;1.67;;;;;;;;;;5030558;28;20018;-65
2023/02/18 00:27:18;;;;;;;5.20;1.70;;;;;;;;;;5032137;28;20043;-65
2023/02/18 00:29:44;;;;;;;7.15;1.90;;;;;;;;;;5032337;28;20029;-65
2023/02/18 00:32:09;;;;;;;4.53;1.52;;;;;;;;;;5029270;28;20488;-65
2023/02/18 00:34:34;;;;;;;6.68;2.00;;;;;;;;;;5028381;28;20037;-65
2023/02/18 00:36:59;;;;;;;5.70;2.03;;;;;;;;;;5026449;28;20421;-67
2023/02/18 00:39:24;;;;;;;5.28;2.03;;;;;;;;;;5032517;28;20027;-65
2023/02/18 00:41:49;;;;;;;8.05;2.10;;;;;;;;;;5033797;28;20103;-67
2023/02/18 00:44:15;;;;;;;5.30;2.08;;;;;;;;;;5028721;28;20551;-65
2023/02/18 00:46:40;;;;;;;6.60;2.27;;;;;;;;;;5029451;28;20022;-65
2023/02/18 00:49:06;;;;;;;7.87;2.57;;;;;;;;;;5029692;28;20034;-65
2023/02/18 00:51:31;;;;;;;6.22;2.10;;;;;;;;;;5031091;28;20030;-65
2023/02/18 00:53:56;;;;;;;6.03;2.25;;;;;;;;;;5031924;28;20056;-65
2023/02/18 00:56:22;;;;;;;5.50;1.90;;;;;;;;;;5030209;28;20087;-65
2023/02/18 00:58:47;;;;;;;5.95;2.35;;;;;;;;;;5032052;28;20426;-65
2023/02/18 01:01:12;;;;;;;10.00;2.53;;;;;;;;;;5032131;28;20544;-67
2023/02/18 01:03:38;;;;;;;6.20;2.28;;;;;;;;;;5031850;28;20509;-65
2023/02/18 01:06:04;;;;;;;6.85;2.10;;;;;;;;;;5026866;28;20036;-65
2023/02/18 01:08:29;;;;;;;5.43;1.98;;;;;;;;;;5032367;28;20100;-67
2023/02/18 01:10:56;;;;;;;7.00;2.08;;;;;;;;;;5032782;28;20495;-68
2023/02/18 01:13:22;;;;;;;6.15;1.73;;;;;;;;;;5031221;28;20025;-67
2023/02/18 01:15:47;;;;;;;5.00;1.73;;;;;;;;;;5031468;28;20481;-66
2023/02/18 01:18:13;;;;;;;5.07;1.37;;;;;;;;;;5031589;28;20064;-66
2023/02/18 01:20:39;;;;;;;6.20;1.30;;;;;;;;;;5031003;28;20025;-66
2023/02/18 01:23:04;;;;;;;5.47;1.40;;;;;;;;;;5031779;28;20101;-66
2023/02/18 01:25:30;;;;;;;4.78;1.40;;;;;;;;;;5031257;28;20100;-67
2023/02/18 01:27:55;;;;;;;6.28;1.35;;;;;;;;;;5031680;28;20393;-67
2023/02/18 01:30:21;;;;;;;7.27;1.30;;;;;;;;;;5031701;28;20028;-66
2023/02/18 01:32:46;;;;;;;6.22;1.00;;;;;;;;;;5031680;28;20021;-66
2023/02/18 01:35:13;;;;;;;4.90;1.20;;;;;;;;;;5030070;28;20025;-66
2023/02/18 01:37:38;;;;;;;7.20;1.50;;;;;;;;;;5030978;28;20017;-66
2023/02/18 01:40:04;;;;;;;4.65;1.35;;;;;;;;;;5031146;28;20028;-67
2023/02/18 01:42:29;;;;;;;7.18;1.27;;;;;;;;;;5031355;28;20018;-67
2023/02/18 01:45:14;;;;;;;4.57;1.40;;;;;;;;;;5026999;28;20013;-66
2023/02/18 01:47:39;;;;;;;5.47;1.50;;;;;;;;;;5028522;28;20032;-67
2023/02/18 01:50:05;;;;;;;4.97;1.50;;;;;;;;;;5037723;28;20014;-67
2023/02/18 01:52:31;;;;;;;6.78;1.50;;;;;;;;;;5031089;28;20029;-66
2023/02/18 01:54:57;;;;;;;4.53;1.45;;;;;;;;;;5028152;28;20033;-66
2023/02/18 01:57:28;;;;;;;7.85;1.48;;;;;;;;;;5029680;28;20060;-66
2023/02/18 01:59:55;;;;;;;5.63;1.52;;;;;;;;;;5029109;28;20037;-65
2023/02/18 02:02:21;;;;;;;8.38;2.00;;;;;;;;;;5029108;28;20068;-66
2023/02/18 02:04:47;;;;;;;5.75;1.33;;;;;;;;;;5025924;28;20045;-66
2023/02/18 02:07:12;;;;;;;7.65;1.75;;;;;;;;;;5027822;28;20048;-67
2023/02/18 02:09:38;;;;;;;5.43;1.30;;;;;;;;;;5027509;28;20029;-67
2023/02/18 02:12:13;;;;;;;5.40;1.40;;;;;;;;;;5028927;28;20029;-66
2023/02/18 02:14:46;;;;;;;6.57;1.48;;;;;;;;;;5025819;28;20114;-67
2023/02/18 02:17:31;;;;;;;8.43;1.50;;;;;;;;;;5027805;28;20031;-66
2023/02/18 02:20:14;;;;;;;7.05;1.13;;;;;;;;;;5028030;28;20046;-67
2023/02/18 02:22:58;;;;;;;4.70;1.10;;;;;;;;;;5028786;28;20022;-68
2023/02/18 02:25:35;;;;;;;7.18;1.13;;;;;;;;;;5025313;28;20018;-67
2023/02/18 02:28:26;;;;;;;5.22;1.20;;;;;;;;;;5026898;28;20026;-67
2023/02/18 02:31:06;;;;;;;5.53;1.20;;;;;;;;;;5026815;28;20032;-66
2023/02/18 02:33:54;;;;;;;4.25;0.80;;;;;;;;;;5023182;28;20046;-66
2023/02/18 02:36:29;;;;;;;6.00;0.90;;;;;;;;;;5019747;28;20028;-67
2023/02/18 02:39:13;;;;;;;4.35;0.90;;;;;;;;;;5026347;28;20083;-65
2023/02/18 02:41:43;;;;;;;4.50;1.00;;;;;;;;;;5030113;28;20029;-67
2023/02/18 02:44:12;;;;;;;3.90;0.80;;;;;;;;;;5031360;28;20025;-66
2023/02/18 02:46:43;;;;;;;4.32;0.90;;;;;;;;;;5028347;28;20036;-65
2023/02/18 02:49:31;;;;;;;4.00;0.77;;;;;;;;;;5028908;28;20021;-66
2023/02/18 02:52:02;;;;;;;8.02;1.10;;;;;;;;;;5027854;28;20068;-66
2023/02/18 02:54:28;;;;;;;8.32;0.93;;;;;;;;;;5031258;28;20014;-66
2023/02/18 02:57:07;;;;;;;4.10;0.90;;;;;;;;;;5031226;28;20057;-64
2023/02/18 02:59:34;;;;;;;6.45;1.10;;;;;;;;;;5027443;28;20091;-67
2023/02/18 03:01:59;;;;;;;5.03;0.75;;;;;;;;;;5033255;28;20489;-66
2023/02/18 03:04:36;;;;;;;5.20;0.82;;;;;;;;;;5026770;28;20507;-64
2023/02/18 03:07:01;;;;;;;7.22;0.93;;;;;;;;;;5028371;28;20029;-65
2023/02/18 03:09:38;;;;;;;6.45;0.80;;;;;;;;;;5026197;28;20026;-65
2023/02/18 03:12:16;;;;;;;3.40;0.68;;;;;;;;;;5037861;28;20017;-65
2023/02/18 03:15:00;;;;;;;7.00;0.85;;;;;;;;;;5026961;28;20025;-65
2023/02/18 03:17:25;;;;;;;;;;;;;;;;;;5021453;28;20048;-65
2023/02/18 03:19:56;;;;;;;5.93;1.08;;;;;;;;;;5032327;28;20023;-65
2023/02/18 03:22:28;;;;;;;5.82;0.85;;;;;;;;;;5021178;28;20018;-65
2023/02/18 03:24:55;;;;;;;7.03;1.13;;;;;;;;;;5027065;28;20489;-65
2023/02/18 03:27:20;;;;;;;;;;;;;;;;;;5022279;28;20552;-64
2023/02/18 03:29:47;;;;;;;5.07;1.15;;;;;;;;;;5025825;28;20380;-65
2023/02/18 03:32:14;;;;;;;6.22;0.85;;;;;;;;;;5035812;28;20369;-67
2023/02/18 03:34:42;;;;;;;5.55;0.80;;;;;;;;;;5033223;28;20029;-67
2023/02/18 03:37:08;;;;;;;5.00;0.90;;;;;;;;;;5031327;28;20039;-65
2023/02/18 03:39:34;;;;;;;7.32;0.90;;;;;;;;;;5027464;28;20443;-65
2023/02/18 03:41:59;;;;;;;9.93;1.10;;;;;;;;;;5030463;28;20029;-66
2023/02/18 03:44:25;;;;;;;8.73;0.93;;;;;;;;;;5035957;28;20936;-66
2023/02/18 03:46:50;;;;;;;10.13;1.20;;;;;;;;;;5036965;28;20047;-65
2023/02/18 03:49:15;;;;;;;4.00;0.90;;;;;;;;;;5035573;28;20052;-66
2023/02/18 03:51:41;;;;;;;5.10;1.10;;;;;;;;;;5027901;28;20524;-65
2023/02/18 03:54:06;;;;;;;5.55;0.90;;;;;;;;;;5035565;28;20025;-65
2023/02/18 03:56:32;;;;;;;5.23;0.90;;;;;;;;;;5027647;28;20539;-65
2023/02/18 03:58:57;;;;;;;5.65;1.08;;;;;;;;;;5025174;28;20032;-67
2023/02/18 04:01:22;;;;;;;8.15;1.20;;;;;;;;;;5024931;28;20127;-66
2023/02/18 04:03:47;;;;;;;6.80;0.80;;;;;;;;;;5028037;28;20022;-66
2023/02/18 04:06:12;;;;;;;5.95;0.90;;;;;;;;;;5027842;28;20052;-66
2023/02/18 04:08:37;;;;;;;8.93;1.02;;;;;;;;;;5025327;28;20029;-65
2023/02/18 04:11:03;;;;;;;10.35;1.20;;;;;;;;;;5027979;28;20026;-65
2023/02/18 04:13:29;;;;;;;7.22;1.23;;;;;;;;;;5029888;28;20028;-65
2023/02/18 04:15:54;;;;;;;7.00;1.20;;;;;;;;;;5038424;28;20487;-65
2023/02/18 04:18:19;;;;;;;7.32;1.10;;;;;;;;;;5027106;28;21038;-66
2023/02/18 04:20:47;;;;;;;8.87;1.23;;;;;;;;;;5025464;28;20539;-66
2023/02/18 04:23:12;;;;;;;7.53;1.10;;;;;;;;;;5030967;28;20556;-65
2023/02/18 04:25:37;;;;;;;5.60;1.20;;;;;;;;;;5025182;28;20113;-66
2023/02/18 04:28:03;;;;;;;6.10;1.00;;;;;;;;;;5029625;28;20033;-65
2023/02/18 04:30:28;;;;;;;5.03;0.80;;;;;;;;;;5030879;28;20052;-65
2023/02/18 04:32:53;;;;;;;6.33;1.10;;;;;;;;;;5029325;28;20366;-65
2023/02/18 04:35:18;;;;;;;7.47;1.27;;;;;;;;;;5029545;28;21442;-65
2023/02/18 04:37:44;;;;;;;8.57;1.23;;;;;;;;;;5030746;28;20047;-65
2023/02/18 04:40:09;;;;;;;6.40;1.00;;;;;;;;;;5029879;28;20477;-66
2023/02/18 04:42:34;;;;;;;7.25;1.30;;;;;;;;;;5030573;28;20028;-66
2023/02/18 04:44:59;;;;;;;7.90;1.50;;;;;;;;;;5030906;28;20463;-65
2023/02/18 04:47:25;;;;;;;6.53;1.17;;;;;;;;;;5031721;28;20071;-66
2023/02/18 04:49:50;;;;;;;6.95;1.30;;;;;;;;;;5035631;28;20491;-66
2023/02/18 04:52:15;;;;;;;7.17;1.40;;;;;;;;;;5029122;28;20389;-65
2023/02/18 04:54:41;;;;;;;7.55;1.27;;;;;;;;;;5029449;28;20460;-65
2023/02/18 04:57:06;;;;;;;6.40;1.67;;;;;;;;;;5028761;28;20398;-64
2023/02/18 04:59:31;;;;;;;13.45;2.42;;;;;;;;;;5030661;28;20041;-66
2023/02/18 05:01:56;;;;;;;9.17;1.97;;;;;;;;;;5031312;28;20090;-65
2023/02/18 05:04:21;;;;;;;8.50;1.92;;;;;;;;;;5036964;28;20409;-65
2023/02/18 05:06:46;;;;;;;8.90;1.93;;;;;;;;;;5028952;28;20083;-65
2023/02/18 05:09:12;;;;;;;7.55;2.28;;;;;;;;;;5027919;28;20539;-65
2023/02/18 05:11:37;;;;;;;8.30;2.03;;;;;;;;;;5027956;28;20033;-66
2023/02/18 05:14:02;;;;;;;7.00;1.60;;;;;;;;;;5029384;28;20022;-66
2023/02/18 05:16:27;;;;;;;8.82;1.80;;;;;;;;;;5030107;28;20017;-65
2023/02/18 05:18:53;;;;;;;7.90;1.73;;;;;;;;;;5030605;28;20354;-65
2023/02/18 05:21:18;;;;;;;9.23;2.00;;;;;;;;;;5025338;28;20021;-66
2023/02/18 05:23:43;;;;;;;7.97;1.73;;;;;;;;;;5030718;28;23339;-67
2023/02/18 05:26:08;;;;;;;8.52;1.70;;;;;;;;;;5013129;28;20030;-65
2023/02/18 05:28:33;;;;;;;11.97;2.03;;;;;;;;;;5029520;28;20427;-65
2023/02/18 05:30:58;;;;;;;7.47;2.10;;;;;;;;;;5003783;28;22546;-66
2023/02/18 05:33:24;;;;;;;6.80;1.93;;;;;;;;;;5016125;28;20022;-65
2023/02/18 05:35:49;;;;;;;8.68;1.77;;;;;;;;;;5013377;28;20037;-66
2023/02/18 05:38:14;;;;;;;9.70;1.93;;;;;;;;;;5008326;28;20041;-67
2023/02/18 05:40:40;;;;;;;11.85;2.22;;;;;;;;;;5010894;28;20177;-66
2023/02/18 05:43:05;;;;;;;9.10;1.98;;;;;;;;;;5016462;28;20640;-66
2023/02/18 05:45:30;;;;;;;7.82;2.00;;;;;;;;;;5022399;28;20096;-65
2023/02/18 05:47:55;;;;;;;11.23;2.17;;;;;;;;;;5016496;28;20121;-65
2023/02/18 05:50:21;;;;;;;6.20;1.83;;;;;;;;;;5016012;28;20044;-65
2023/02/18 05:52:46;;;;;;;11.83;2.57;;;;;;;;;;5027655;28;20026;-65
2023/02/18 05:55:11;;;;;;;8.00;2.03;;;;;;;;;;5023798;28;20266;-65
2023/02/18 05:57:36;;;;;;;11.05;2.78;;;;;;;;;;5016468;28;20021;-65
2023/02/18 06:00:02;;;;;;;10.53;2.27;;;;;;;;;;5016690;28;20033;-65
2023/02/18 06:02:28;;;;;;;10.60;2.65;;;;;;;;;;5006704;28;20037;-66
2023/02/18 06:04:53;;;;;;;9.63;2.67;;;;;;;;;;5008435;28;20026;-65
2023/02/18 06:07:19;;;;;;;11.35;2.45;;;;;;;;;;5012717;28;20037;-65
2023/02/18 06:09:44;;;;;;;8.35;2.65;;;;;;;;;;5009009;28;20049;-65
2023/02/18 06:12:09;;;;;;;12.03;2.70;;;;;;;;;;5005476;28;20133;-65
2023/02/18 06:14:34;;;;;;;10.60;2.78;;;;;;;;;;5016442;28;20041;-65
2023/02/18 06:17:00;;;;;;;8.97;2.67;;;;;;;;;;5004859;28;20156;-65
2023/02/18 06:19:25;;;;;;;10.25;3.03;;;;;;;;;;5012027;28;20032;-67
2023/02/18 06:21:50;;;;;;;10.53;2.97;;;;;;;;;;5014637;28;20032;-67
2023/02/18 06:24:15;;;;;;;11.77;3.23;;;;;;;;;;5011804;28;20072;-68
2023/02/18 06:26:40;;;;;;;8.60;2.80;;;;;;;;;;5008833;28;20032;-67
2023/02/18 06:29:05;;;;;;;8.27;2.77;;;;;;;;;;5015421;28;20021;-68
2023/02/18 06:31:31;;;;;;;12.77;3.43;;;;;;;;;;5029223;28;20029;-67
2023/02/18 06:33:56;;;;;;;10.93;3.43;;;;;;;;;;5021048;28;20028;-66
2023/02/18 06:36:21;;;;;;;13.33;3.47;;;;;;;;;;5019045;28;20099;-67
2023/02/18 06:38:46;;;;;;;11.10;3.50;;;;;;;;;;5029370;28;20056;-67
2023/02/18 06:41:12;;;;;;;13.47;3.97;;;;;;;;;;5032565;28;20097;-66
2023/02/18 06:43:37;;;;;;;10.43;3.53;;;;;;;;;;5032918;28;20401;-67
2023/02/18 06:46:03;;;;;;;10.75;3.63;;;;;;;;;;5023211;28;20018;-66
2023/02/18 06:48:28;;;;;;;13.53;4.00;;;;;;;;;;5026081;28;20025;-66
2023/02/18 06:50:53;;;;;;;12.27;3.47;;;;;;;;;;5026431;28;20033;-68
2023/02/18 06:53:18;;;;;;;11.93;4.40;;;;;;;;;;5029781;28;20017;-68
2023/02/18 06:55:44;;;;;;;9.85;3.78;;;;;;;;;;5029489;28;20619;-66
2023/02/18 06:58:10;;;;;;;12.02;3.88;;;;;;;;;;5020945;28;20029;-66
2023/02/18 07:00:35;;;;;;;10.40;3.90;;;;;;;;;;5025800;28;20021;-66
2023/02/18 07:03:00;;;;;;;10.33;3.80;;;;;;;;;;5026877;28;20442;-66
2023/02/18 07:05:25;;;;;;;13.17;3.90;;;;;;;;;;5024170;28;20040;-67
2023/02/18 07:07:50;;;;;;;11.93;4.03;;;;;;;;;;5027683;28;20477;-67
2023/02/18 07:10:16;;;;;;;10.65;3.78;;;;;;;;;;5026432;28;20541;-67
2023/02/18 07:12:41;;;;;;;13.97;5.27;;;;;;;;;;5026666;28;20026;-66
2023/02/18 07:15:06;;;;;;;13.75;4.47;;;;;;;;;;5026268;28;20052;-67
2023/02/18 07:17:31;;;;;;;11.40;4.47;;;;;;;;;;5027526;28;20418;-66
2023/02/18 07:19:56;;;;;;;12.38;4.63;;;;;;;;;;5030548;28;20492;-67
2023/02/18 07:22:22;;;;;;;14.70;5.60;;;;;;;;;;5028501;28;20448;-66
2023/02/18 07:24:51;;;;;;;15.30;4.75;;;;;;;;;;5026825;28;20028;-66
2023/02/18 07:27:16;;;;;;;13.75;5.07;;;;;;;;;;5034767;28;20025;-69
2023/02/18 07:29:41;;;;;;;13.50;5.13;;;;;;;;;;5028218;28;20029;-69
2023/02/18 07:32:06;;;;;;;11.63;4.65;;;;;;;;;;5035513;28;20026;-68
2023/02/18 07:34:32;;;;;;;13.47;4.70;;;;;;;;;;5028522;28;20512;-69
2023/02/18 07:36:58;;;;;;;18.03;5.43;;;;;;;;;;5028935;28;20006;-69
2023/02/18 07:39:24;;;;;;;20.30;6.07;;;;;;;;;;5028535;28;20091;-68
2023/02/18 07:41:49;;;;;;;15.80;5.70;;;;;;;;;;5025372;28;20043;-68
2023/02/18 07:44:14;;;;;;;17.77;6.40;;;;;;;;;;5022948;28;20017;-68
2023/02/18 07:46:40;;;;;;;16.77;6.40;;;;;;;;;;5018449;28;20158;-68
2023/02/18 07:49:05;;;;;;;12.77;5.32;;;;;;;;;;5020295;28;20025;-67
2023/02/18 07:51:30;;;;;;;12.80;5.33;;;;;;;;;;5037202;28;20443;-67
2023/02/18 07:53:55;;;;;;;15.65;5.72;;;;;;;;;;5025645;28;20032;-69
2023/02/18 07:56:20;;;;;;;18.67;6.33;;;;;;;;;;5024720;28;20028;-68
2023/02/18 07:58:46;;;;;;;15.57;5.60;;;;;;;;;;5028998;28;20029;-67
2023/02/18 08:01:13;;;;;;;12.85;5.55;;;;;;;;;;5031156;28;20489;-68
2023/02/18 08:03:38;;;;;;;17.02;6.38;;;;;;;;;;5031164;28;20040;-68
2023/02/18 08:06:04;;;;;;;12.27;5.10;;;;;;;;;;5029625;28;20477;-68
2023/02/18 08:08:30;;;;;;;14.80;5.80;;;;;;;;;;5022172;28;20022;-68
2023/02/18 08:10:56;;;;;;;13.55;5.50;;;;;;;;;;5029277;28;20028;-67
2023/02/18 08:13:21;;;;;;;14.68;5.78;;;;;;;;;;5028876;28;20108;-68
2023/02/18 08:15:46;;;;;;;11.17;5.50;;;;;;;;;;5028869;28;20105;-68
2023/02/18 08:18:16;;;;;;;13.80;5.53;;;;;;;;;;5050299;28;20450;-66
2023/02/18 08:20:41;;;;;;;14.95;6.20;;;;;;;;;;5035460;28;20052;-68
2023/02/18 08:23:07;;;;;;;14.10;5.57;;;;;;;;;;5025840;28;20049;-66
2023/02/18 08:25:32;;;;;;;12.47;5.57;;;;;;;;;;5032269;28;20029;-67
2023/02/18 08:27:57;;;;;;;15.60;5.33;;;;;;;;;;5035061;28;20154;-67
2023/02/18 08:30:23;;;;;;;11.45;5.18;;;;;;;;;;5040683;28;20041;-67
2023/02/18 08:32:48;;;;;;;12.13;4.97;;;;;;;;;;5035940;28;20424;-67
2023/02/18 08:35:13;;;;;;;11.07;5.50;;;;;;;;;;5030226;28;20052;-67
2023/02/18 08:37:38;;;;;;;14.00;6.30;;;;;;;;;;5032207;28;20400;-67
2023/02/18 08:40:04;;;;;;;13.93;7.00;;;;;;;;;;5028907;28;20041;-67
2023/02/18 08:42:29;;;;;;;19.05;7.00;;;;;;;;;;5031491;28;20397;-67
2023/02/18 08:44:54;;;;;;;15.40;6.35;;;;;;;;;;5026654;28;20439;-67
2023/02/18 08:47:19;;;;;;;14.48;6.68;;;;;;;;;;5027630;28;20052;-67
2023/02/18 08:49:45;;;;;;;16.58;6.90;;;;;;;;;;5026819;28;20030;-67
2023/02/18 08:52:10;;;;;;;25.88;9.13;;;;;;;;;;5032881;28;20385;-67
2023/02/18 08:54:35;;;;;;;15.88;7.15;;;;;;;;;;5031187;28;20064;-67
2023/02/18 08:57:00;;;;;;;20.15;7.07;;;;;;;;;;5029369;28;20036;-68
2023/02/18 08:59:25;;;;;;;15.40;6.03;;;;;;;;;;5030901;28;20432;-68
2023/02/18 09:01:51;;;;;;;20.98;7.82;;;;;;;;;;5032187;28;20056;-66
2023/02/18 09:04:16;;;;;;;21.20;8.00;;;;;;;;;;5028584;28;20022;-65
2023/02/18 09:06:41;;;;;;;17.80;6.65;;;;;;;;;;5031721;28;20478;-68
2023/02/18 09:09:06;;;;;;;13.88;6.28;;;;;;;;;;5032132;28;20104;-68
2023/02/18 09:11:32;;;;;;;15.03;6.80;;;;;;;;;;5031116;28;20036;-68
2023/02/18 09:13:57;;;;;;;17.10;6.73;;;;;;;;;;5030735;28;20104;-68
2023/02/18 09:16:22;;;;;;;19.10;7.73;;;;;;;;;;5032033;28;20527;-68
2023/02/18 09:18:47;;;;;;;17.10;6.43;;;;;;;;;;5032421;28;20039;-67
2023/02/18 09:21:14;;;;;;;15.03;6.70;;;;;;;;;;5032169;28;20116;-68
2023/02/18 09:23:39;;;;;;;;;;;;;;;;;;5031726;28;20036;-67
2023/02/18 09:26:05;;;;;;;18.08;7.47;;;;;;;;;;5030563;28;19909;-67
2023/02/18 09:28:30;;;;;;;19.52;8.25;;;;;;;;;;5032130;28;20388;-67
2023/02/18 09:30:56;;;;;;;24.53;9.07;;;;;;;;;;5031902;28;20026;-67
2023/02/18 09:33:21;;;;;;;22.20;8.93;;;;;;;;;;5030439;28;21317;-67
2023/02/18 09:35:46;;;;;;;18.85;7.55;;;;;;;;;;5030989;28;20047;-68
2023/02/18 09:38:14;;;;;;;16.93;7.40;;;;;;;;;;5031981;28;20056;-67
2023/02/18 09:40:42;;;;;;;22.38;8.70;;;;;;;;;;5030693;28;20076;-67
2023/02/18 09:43:14;;;;;;;16.52;7.50;;;;;;;;;;5031937;28;20611;-67
2023/02/18 09:45:39;;;;;;;19.48;8.00;;;;;;;;;;5030656;28;20067;-67
2023/02/18 09:48:04;;;;;;;21.42;8.48;;;;;;;;;;5033267;28;20431;-68
2023/02/18 09:50:32;;;;;;;19.00;7.68;;;;;;;;;;5033963;28;20025;-68
2023/02/18 09:52:58;;;;;;;18.17;7.57;;;;;;;;;;5033853;28;20485;-66
2023/02/18 09:55:36;;;;;;;15.73;6.80;;;;;;;;;;5031005;28;20053;-65
2023/02/18 09:58:03;;;;;;;19.65;7.18;;;;;;;;;;5032012;28;20033;-66
2023/02/18 10:00:28;;;;;;;;;;;;;;;;;;5032888;28;20037;-66
2023/02/18 10:02:55;;;;;;;15.77;6.10;;;;;;;;;;5031437;28;20039;-68
2023/02/18 10:05:21;;;;;;;16.10;6.38;;;;;;;;;;5028661;28;20068;-66
2023/02/18 10:07:48;;;;;;;9.48;3.85;;;;;;;;;;5030210;28;20037;-68
2023/02/18 10:10:31;;;;;;;8.52;3.83;;;;;;;;;;5030955;28;20032;-67
2023/02/18 10:12:57;;;;;;;5.15;1.83;;;;;;;;;;5024667;28;20088;-67
2023/02/18 10:15:25;;;;;;;3.40;1.40;;;;;;;;;;5029502;28;20021;-67
2023/02/18 10:17:51;;;;;;;3.22;1.23;;;;;;;;;;5029659;28;20030;-67
2023/02/18 10:20:19;;;;;;;3.10;1.00;;;;;;;;;;5030853;28;20039;-67
2023/02/18 10:22:44;;;;;;;3.20;1.20;;;;;;;;;;5026457;28;20030;-68
2023/02/18 10:25:15;;;;;;;2.90;0.93;;;;;;;;;;5028005;28;20493;-68
2023/02/18 10:27:40;;;;;;;2.60;0.73;;;;;;;;;;5027612;28;20028;-68
2023/02/18 10:30:24;;;;;;;2.43;0.90;;;;;;;;;;5026215;28;20021;-66
2023/02/18 10:32:51;;;;;;;3.38;0.82;;;;;;;;;;5027146;28;20112;-67
2023/02/18 10:35:35;;;;;;;1.80;0.73;;;;;;;;;;5027244;28;20036;-65
2023/02/18 10:38:00;;;;;;;2.30;0.82;;;;;;;;;;5020938;28;20013;-65
2023/02/18 10:40:34;;;;;;;2.13;0.70;;;;;;;;;;5024633;28;20041;-67
2023/02/18 10:43:05;;;;;;;2.50;0.90;;;;;;;;;;5024652;28;20436;-64
2023/02/18 10:45:51;;;;;;;3.30;1.00;;;;;;;;;;5025852;28;20021;-67
2023/02/18 10:48:37;;;;;;;2.60;0.70;;;;;;;;;;5026772;28;20068;-67
2023/02/18 10:51:11;;;;;;;3.38;0.80;;;;;;;;;;5022071;28;20032;-67
2023/02/18 10:53:37;;;;;;;2.80;0.77;;;;;;;;;;5023839;28;20045;-67
2023/02/18 10:56:04;;;;;;;2.08;0.70;;;;;;;;;;5026631;28;20072;-67
2023/02/18 10:58:29;;;;;;;;;;;;;;;;;;5027055;28;20041;-67
2023/02/18 11:00:54;;;;;;;1.88;0.60;;;;;;;;;;5020250;28;19920;-67
2023/02/18 11:03:24;;;;;;;2.13;0.70;;;;;;;;;;5021707;28;20032;-67
2023/02/18 11:05:51;;;;;;;3.03;0.80;;;;;;;;;;5019828;28;20029;-67
2023/02/18 11:08:19;;;;;;;1.77;0.68;;;;;;;;;;5023769;28;20067;-67
2023/02/18 11:10:45;;;;;;;2.03;0.70;;;;;;;;;;5019559;28;20029;-67
2023/02/18 11:13:12;;;;;;;3.08;0.73;;;;;;;;;;5015317;28;20096;-68
2023/02/18 11:15:37;;;;;;;5.15;0.70;;;;;;;;;;5012105;28;20034;-66
2023/02/18 11:18:13;;;;;;;2.17;0.70;;;;;;;;;;5021711;28;20112;-67
2023/02/18 11:20:39;;;;;;;2.20;0.60;;;;;;;;;;5031926;28;20034;-68
2023/02/18 11:23:04;;;;;;;2.33;0.70;;;;;;;;;;5028873;28;20048;-66
2023/02/18 11:25:32;;;;;;;2.03;0.50;;;;;;;;;;5029400;28;20535;-66
2023/02/18 11:27:59;;;;;;;4.07;0.70;;;;;;;;;;5040269;28;20094;-66
2023/02/18 11:30:24;;;;;;;;;;;;;;;;;;5031037;28;20061;-66
2023/02/18 11:32:52;;;;;;;1.38;0.50;;;;;;;;;;5047427;28;19905;-66
2023/02/18 11:35:19;;;;;;;0.93;0.40;;;;;;;;;;5029099;28;20104;-67
2023/02/18 11:37:45;;;;;;;1.27;0.50;;;;;;;;;;5031844;28;20037;-67
2023/02/18 11:40:21;;;;;;;4.13;1.30;;;;;;;;;;5031361;28;20037;-67
2023/02/18 11:42:46;;;;;;;2.25;0.45;;;;;;;;;;5040797;28;20499;-67
2023/02/18 11:45:25;;;;;;;2.90;0.90;;;;;;;;;;5045512;28;20025;-67
2023/02/18 11:47:57;;;;;;;3.30;1.33;;;;;;;;;;5049591;28;20029;-67
2023/02/18 11:50:23;;;;;;;2.53;1.02;;;;;;;;;;5023400;28;20021;-66
2023/02/18 11:52:49;;;;;;;5.67;2.27;;;;;;;;;;5030759;28;20041;-67
2023/02/18 11:55:15;;;;;;;7.07;3.13;;;;;;;;;;5025460;28;20029;-67
2023/02/18 11:57:54;;;;;;;7.03;4.20;;;;;;;;;;5030764;28;20025;-67
2023/02/18 12:00:21;;;;;;;3.40;1.40;;;;;;;;;;5031046;28;20501;-67
2023/02/18 12:02:48;;;;;;;2.90;0.50;;;;;;;;;;5031604;28;20049;-67
2023/02/18 12:05:20;;;;;;;1.20;0.50;;;;;;;;;;5038454;28;20036;-67
2023/02/18 12:07:55;;;;;;;3.63;0.65;;;;;;;;;;5027671;28;20037;-68
2023/02/18 12:10:30;;;;;;;2.30;0.60;;;;;;;;;;5028382;28;20028;-67
2023/02/18 12:13:01;;;;;;;1.52;0.70;;;;;;;;;;5027267;28;20048;-67
2023/02/18 12:15:31;;;;;;;2.25;0.70;;;;;;;;;;5030360;28;20022;-68
2023/02/18 12:18:05;;;;;;;1.77;0.77;;;;;;;;;;5031008;28;20103;-68
2023/02/18 12:20:47;;;;;;;2.15;0.70;;;;;;;;;;5030311;28;20112;-66
2023/02/18 12:23:36;;;;;;;2.92;0.90;;;;;;;;;;5038495;28;20029;-66
2023/02/18 12:26:11;;;;;;;2.47;0.90;;;;;;;;;;5028720;28;20036;-65
2023/02/18 12:28:42;;;;;;;2.95;0.90;;;;;;;;;;5033971;28;20025;-66
2023/02/18 12:31:10;;;;;;;4.35;1.02;;;;;;;;;;5034259;28;20025;-67
2023/02/18 12:33:53;;;;;;;3.72;1.00;;;;;;;;;;5042436;28;20034;-66
2023/02/18 12:36:37;;;;;;;3.25;1.10;;;;;;;;;;5029956;28;20025;-66
2023/02/18 12:39:09;;;;;;;3.90;1.00;;;;;;;;;;5031745;28;20040;-66
2023/02/18 12:41:43;;;;;;;3.20;1.25;;;;;;;;;;5033164;28;20063;-68
2023/02/18 12:44:28;;;;;;;2.95;1.10;;;;;;;;;;5027385;28;20147;-66
2023/02/18 12:47:12;;;;;;;2.83;1.00;;;;;;;;;;5024173;28;20145;-67
2023/02/18 12:49:59;;;;;;;3.50;1.15;;;;;;;;;;5026327;28;20458;-67
2023/02/18 12:52:26;;;;;;;3.72;1.40;;;;;;;;;;5020650;28;20025;-67
2023/02/18 12:54:54;;;;;;;6.45;1.20;;;;;;;;;;5028765;28;20065;-67
2023/02/18 12:57:20;;;;;;;4.68;1.67;;;;;;;;;;5020085;28;20029;-66
2023/02/18 12:59:45;;;;;;;3.45;1.42;;;;;;;;;;5031604;28;20037;-65
2023/02/18 13:02:22;;;;;;;3.63;1.40;;;;;;;;;;5028887;28;20024;-65
2023/02/18 13:05:08;;;;;;;3.42;1.33;;;;;;;;;;5033385;28;20113;-65
2023/02/18 13:07:33;;;;;;;4.13;1.40;;;;;;;;;;5028627;28;20076;-66
2023/02/18 13:10:20;;;;;;;4.10;1.40;;;;;;;;;;5040730;28;20026;-67
2023/02/18 13:13:04;;;;;;;3.45;1.10;;;;;;;;;;5039962;28;20389;-67
2023/02/18 13:15:29;;;;;;;8.80;3.40;;;;;;;;;;5022977;28;20025;-66
2023/02/18 13:17:56;;;;;;;11.40;3.50;;;;;;;;;;5023632;28;20052;-66
2023/02/18 13:20:32;;;;;;;3.25;1.20;;;;;;;;;;5014776;28;20474;-66
2023/02/18 13:22:58;;;;;;;4.70;1.80;;;;;;;;;;5014211;28;20017;-66
2023/02/18 13:25:23;;;;;;;4.57;1.90;;;;;;;;;;5018925;28;20070;-67
2023/02/18 13:27:59;;;;;;;7.82;1.75;;;;;;;;;;5019094;28;20176;-66
2023/02/18 13:30:37;;;;;;;3.88;1.30;;;;;;;;;;5026279;28;20100;-66
2023/02/18 13:33:24;;;;;;;7.72;3.28;;;;;;;;;;5021281;28;20603;-66
2023/02/18 13:36:10;;;;;;;3.45;1.10;;;;;;;;;;5021551;28;20717;-66
2023/02/18 13:38:38;;;;;;;2.22;0.80;;;;;;;;;;5021195;28;21373;-66
2023/02/18 13:41:04;;;;;;;2.38;0.80;;;;;;;;;;5023291;28;20029;-66
2023/02/18 13:43:31;;;;;;;2.72;1.00;;;;;;;;;;5028439;28;20103;-67
2023/02/18 13:46:07;;;;;;;4.85;2.00;;;;;;;;;;5025598;28;20029;-66
2023/02/18 13:48:46;;;;;;;4.28;1.10;;;;;;;;;;5022811;28;20350;-66
2023/02/18 13:51:12;;;;;;;2.05;0.88;;;;;;;;;;5023687;28;20037;-65
2023/02/18 13:53:37;;;;;;;;;;;;;;;;;;5018865;28;20034;-65
2023/02/18 13:56:06;;;;;;;3.45;1.05;;;;;;;;;;5026311;28;19939;-66
2023/02/18 13:58:35;;;;;;;2.13;0.70;;;;;;;;;;5029418;28;20061;-67
2023/02/18 14:01:03;;;;;;;2.65;0.82;;;;;;;;;;5022498;28;20026;-67
2023/02/18 14:03:32;;;;;;;2.10;0.70;;;;;;;;;;5027906;28;20100;-67
2023/02/18 14:05:57;;;;;;;2.10;0.70;;;;;;;;;;5026519;28;20025;-67
2023/02/18 14:08:28;;;;;;;2.67;0.77;;;;;;;;;;5029577;28;20148;-68
2023/02/18 14:11:12;;;;;;;2.35;0.70;;;;;;;;;;5032290;28;20080;-65
2023/02/18 14:13:38;;;;;;;2.58;0.70;;;;;;;;;;5035967;28;20018;-68
2023/02/18 14:16:03;;;;;;;2.22;0.60;;;;;;;;;;5027233;28;20030;-68
2023/02/18 14:18:33;;;;;;;3.97;0.95;;;;;;;;;;5030875;28;20338;-68
2023/02/18 14:21:17;;;;;;;2.17;0.90;;;;;;;;;;5027747;28;20112;-66
2023/02/18 14:23:53;;;;;;;2.08;0.70;;;;;;;;;;5025131;28;20022;-66
2023/02/18 14:26:29;;;;;;;2.83;0.70;;;;;;;;;;5030638;28;20025;-68
2023/02/18 14:29:06;;;;;;;3.58;0.88;;;;;;;;;;5030912;28;20401;-65
2023/02/18 14:31:45;;;;;;;1.85;0.65;;;;;;;;;;5031205;28;20056;-67
2023/02/18 14:34:12;;;;;;;3.42;0.70;;;;;;;;;;5028638;28;20103;-68
2023/02/18 14:36:43;;;;;;;1.83;0.60;;;;;;;;;;5030038;28;20029;-67
2023/02/18 14:39:21;;;;;;;1.90;0.80;;;;;;;;;;5028689;28;20112;-67
2023/02/18 14:41:58;;;;;;;1.77;0.60;;;;;;;;;;5030438;28;20021;-67
2023/02/18 14:44:23;;;;;;;3.17;0.90;;;;;;;;;;5022055;28;20029;-67
2023/02/18 14:47:10;;;;;;;2.60;0.80;;;;;;;;;;5031177;28;20079;-67